createdAt,value
2022-12-28T00:04:14.846Z,100739.20
2022-12-28T00:09:16.498Z,100745.20
2022-12-28T00:14:18.035Z,100744.60
2022-12-28T00:19:19.614Z,100745.40
2022-12-28T00:24:24.882Z,100740.40
2022-12-28T00:29:26.385Z,100749.40
2022-12-28T00:34:28.108Z,100746.60
2022-12-28T00:39:29.639Z,100744.60
2022-12-28T00:44:31.216Z,100749.20
2022-12-28T00:49:32.741Z,100742.20
2022-12-28T00:54:34.340Z,100742.40
2022-12-28T00:59:35.903Z,100748.80
2022-12-28T01:04:37.400Z,100745.20
2022-12-28T01:09:38.908Z,100748.00
2022-12-28T01:14:40.363Z,100757.40
2022-12-28T01:19:41.885Z,100746.20
2022-12-28T01:24:43.394Z,100735.40
2022-12-28T01:29:45.328Z,100732.20
2022-12-28T01:34:46.882Z,100728.20
2022-12-28T01:39:48.392Z,100731.60
2022-12-28T01:44:51.447Z,100731.20
2022-12-28T01:50:09.327Z,100729.80
2022-12-28T01:55:28.537Z,100725.80
2022-12-28T02:00:30.313Z,100723.80
2022-12-28T02:05:41.690Z,100717.00
2022-12-28T02:10:46.228Z,100709.60
2022-12-28T02:15:48.776Z,100710.20
2022-12-28T02:21:14.627Z,100704.80
2022-12-28T02:26:52.879Z,100706.80
2022-12-28T02:32:28.378Z,100693.60
2022-12-28T02:37:41.739Z,100692.00
2022-12-28T02:42:45.979Z,100692.60
2022-12-28T02:48:07.889Z,100692.40
2022-12-28T02:53:43.208Z,100682.20
2022-12-28T02:59:12.409Z,100684.00
2022-12-28T03:05:03.228Z,100680.80
2022-12-28T03:10:28.399Z,100671.00
2022-12-28T03:15:36.572Z,100679.80
2022-12-28T03:20:57.390Z,100678.40
2022-12-28T03:26:25.368Z,100680.40
2022-12-28T03:31:29.255Z,100685.60
2022-12-28T03:36:46.638Z,100678.00
2022-12-28T03:42:19.076Z,100668.20
2022-12-28T03:47:24.502Z,100670.80
2022-12-28T03:52:26.840Z,100670.40
2022-12-28T03:57:28.647Z,100667.80
2022-12-28T04:02:30.319Z,100668.20
2022-12-28T04:07:32.190Z,100658.20
2022-12-28T04:12:33.753Z,100656.20
2022-12-28T04:17:35.275Z,100655.00
2022-12-28T04:22:36.769Z,100653.00
2022-12-28T04:27:38.395Z,100660.60
2022-12-28T04:32:39.899Z,100658.40
2022-12-28T04:37:41.442Z,100654.60
2022-12-28T04:42:42.989Z,100646.00
2022-12-28T04:47:44.618Z,100643.20
2022-12-28T04:52:46.156Z,100640.20
2022-12-28T04:57:47.797Z,100633.80
2022-12-28T05:02:49.384Z,100636.40
2022-12-28T05:07:51.136Z,100632.60
2022-12-28T05:12:54.987Z,100632.20
2022-12-28T05:17:56.586Z,100632.20
2022-12-28T05:22:58.092Z,100634.40
2022-12-28T05:27:59.658Z,100629.60
2022-12-28T05:33:01.194Z,100626.00
2022-12-28T05:38:03.206Z,100620.80
2022-12-28T05:43:04.697Z,100613.80
2022-12-28T05:48:06.293Z,100598.40
2022-12-28T05:53:07.885Z,100589.80
2022-12-28T05:58:09.427Z,100573.40
2022-12-28T06:03:11.038Z,100569.00
2022-12-28T06:08:16.053Z,100571.00
2022-12-28T06:13:19.885Z,100576.60
2022-12-28T06:18:21.895Z,100574.80
2022-12-28T06:23:23.524Z,100566.60
2022-12-28T06:28:25.479Z,100555.00
2022-12-28T06:33:27.013Z,100537.80
2022-12-28T06:38:32.045Z,100542.20
2022-12-28T06:43:36.960Z,100537.00
2022-12-28T06:48:40.341Z,100525.20
2022-12-28T06:53:43.146Z,100517.20
2022-12-28T06:58:46.785Z,100507.80
2022-12-28T07:03:52.045Z,100510.00
2022-12-28T07:09:03.389Z,100507.80
2022-12-28T07:14:05.194Z,100502.80
2022-12-28T07:19:07.191Z,100505.00
2022-12-28T07:24:08.993Z,100498.00
2022-12-28T07:29:10.597Z,100493.60
2022-12-28T07:34:14.736Z,100500.80
2022-12-28T07:39:16.254Z,100497.60
2022-12-28T07:44:17.801Z,100505.80
2022-12-28T07:49:19.377Z,100498.20
2022-12-28T07:54:20.965Z,100486.60
2022-12-28T07:59:27.447Z,100476.80
2022-12-28T08:04:32.348Z,100469.80
2022-12-28T08:09:33.878Z,100465.60
2022-12-28T08:14:35.392Z,100466.20
2022-12-28T08:19:36.921Z,100480.20
2022-12-28T08:24:38.564Z,100482.60
2022-12-28T08:29:40.144Z,100462.40
2022-12-28T08:34:41.678Z,100455.00
2022-12-28T08:39:43.460Z,100451.80
2022-12-28T08:44:45.017Z,100457.20
2022-12-28T08:49:46.579Z,100451.20
2022-12-28T08:54:48.095Z,100452.20
2022-12-28T08:59:49.563Z,100444.00
2022-12-28T09:04:51.141Z,100433.80
2022-12-28T09:09:52.636Z,100425.80
2022-12-28T09:14:54.274Z,100414.40
2022-12-28T09:19:55.754Z,100414.40
2022-12-28T09:24:57.640Z,100413.20
2022-12-28T09:30:03.856Z,100408.80
2022-12-28T09:35:06.350Z,100404.40
2022-12-28T09:40:13.484Z,100403.60
2022-12-28T09:45:25.670Z,100396.40
2022-12-28T09:50:31.220Z,100395.20
2022-12-28T09:55:41.085Z,100383.40
2022-12-28T10:00:48.475Z,100377.20
2022-12-28T10:05:51.383Z,100368.80
2022-12-28T10:10:56.381Z,100355.40
2022-12-28T10:15:58.166Z,100352.00
2022-12-28T10:20:59.914Z,100342.60
2022-12-28T10:26:04.314Z,100324.40
2022-12-28T10:31:11.814Z,100325.20
2022-12-28T10:36:15.406Z,100313.20
2022-12-28T10:41:20.433Z,100301.80
2022-12-28T10:46:23.932Z,100291.20
2022-12-28T10:51:29.257Z,100280.20
2022-12-28T10:56:43.534Z,100277.00
2022-12-28T11:01:45.372Z,100260.00
2022-12-28T11:06:51.639Z,100237.40
2022-12-28T11:12:15.250Z,100219.80
2022-12-28T11:17:23.831Z,100214.80
2022-12-28T11:22:29.346Z,100199.60
2022-12-28T11:27:30.966Z,100189.00
2022-12-28T11:32:48.418Z,100162.20
2022-12-28T11:37:58.355Z,100152.00
2022-12-28T11:42:59.984Z,100156.60
2022-12-28T11:48:41.079Z,100156.20
2022-12-28T11:53:45.581Z,100157.00
2022-12-28T11:59:03.701Z,100143.40
2022-12-28T12:04:05.234Z,100149.40
2022-12-28T12:09:21.767Z,100138.00
2022-12-28T12:14:35.519Z,100121.20
2022-12-28T12:19:42.516Z,100118.40
2022-12-28T12:24:54.430Z,100117.20
2022-12-28T12:30:13.491Z,100116.60
2022-12-28T12:35:52.444Z,100105.00
2022-12-28T12:41:30.955Z,100094.80
2022-12-28T12:47:12.221Z,100085.00
2022-12-28T12:52:31.882Z,100084.80
2022-12-28T12:58:13.088Z,100078.20
2022-12-28T13:03:41.314Z,100067.00
2022-12-28T13:09:03.319Z,100065.60
2022-12-28T13:14:24.239Z,100057.20
2022-12-28T13:19:29.186Z,100047.60
2022-12-28T13:24:38.427Z,100040.60
2022-12-28T13:29:40.153Z,100037.20
2022-12-28T13:34:50.002Z,100028.40
2022-12-28T13:40:15.263Z,100031.60
2022-12-28T13:45:21.481Z,100030.00
2022-12-28T13:50:29.877Z,100035.20
2022-12-28T13:55:42.338Z,100041.00
2022-12-28T14:00:47.241Z,100032.20
2022-12-28T14:05:54.573Z,100015.80
2022-12-28T14:10:57.081Z,100014.20
2022-12-28T14:16:00.491Z,100014.60
2022-12-28T14:21:03.584Z,100006.20
2022-12-28T14:26:17.117Z,99998.60
2022-12-28T14:31:27.445Z,100004.80
2022-12-28T14:36:44.159Z,99990.60
2022-12-28T14:41:46.412Z,99978.60
2022-12-28T14:46:53.569Z,99988.60
2022-12-28T14:52:16.957Z,99978.80
2022-12-28T14:57:31.855Z,99973.40
2022-12-28T15:02:33.648Z,99972.60
2022-12-28T15:07:35.427Z,99957.40
2022-12-28T15:12:37.638Z,99956.60
2022-12-28T15:17:42.904Z,99959.00
2022-12-28T15:22:48.228Z,99966.40
2022-12-28T15:27:53.263Z,99958.60
2022-12-28T15:33:01.219Z,99957.80
2022-12-28T15:38:03.849Z,99951.20
2022-12-28T15:43:05.455Z,99951.40
2022-12-28T15:48:06.971Z,99948.80
2022-12-28T15:53:08.428Z,99942.20
2022-12-28T15:58:10.015Z,99933.60
2022-12-28T16:03:11.620Z,99936.60
2022-12-28T16:08:13.288Z,99934.60
2022-12-28T16:13:14.848Z,99935.80
2022-12-28T16:18:16.310Z,99929.20
2022-12-28T16:23:17.835Z,99924.20
2022-12-28T16:28:19.340Z,99926.80
2022-12-28T16:33:21.899Z,99916.00
2022-12-28T16:38:27.287Z,99911.40
2022-12-28T16:43:28.957Z,99905.60
2022-12-28T16:48:30.516Z,99904.40
2022-12-28T16:53:33.082Z,99909.00
2022-12-28T16:58:34.748Z,99908.20
2022-12-28T17:03:38.374Z,99898.60
2022-12-28T17:08:40.201Z,99908.00
2022-12-28T17:13:41.890Z,99904.00
2022-12-28T17:18:43.502Z,99895.00
2022-12-28T17:23:44.984Z,99896.20
2022-12-28T17:28:46.842Z,99888.40
2022-12-28T17:33:55.144Z,99888.20
2022-12-28T17:38:56.824Z,99878.40
2022-12-28T17:44:00.315Z,99876.80
2022-12-28T17:49:01.801Z,99873.80
2022-12-28T17:54:03.364Z,99869.00
2022-12-28T17:59:05.989Z,99867.40
2022-12-28T18:04:11.739Z,99860.80
2022-12-28T18:09:13.416Z,99856.60
2022-12-28T18:14:15.139Z,99850.00
2022-12-28T18:19:16.704Z,99853.00
2022-12-28T18:24:20.491Z,99854.20
2022-12-28T18:29:22.077Z,99845.20
2022-12-28T18:34:23.716Z,99851.00
2022-12-28T18:39:25.303Z,99849.20
2022-12-28T18:44:26.932Z,99844.20
2022-12-28T18:49:28.602Z,99840.60
2022-12-28T18:54:30.733Z,99832.20
2022-12-28T18:59:32.316Z,99830.00
2022-12-28T19:04:34.126Z,99831.20
2022-12-28T19:09:35.769Z,99826.40
2022-12-28T19:14:37.330Z,99816.00
2022-12-28T19:19:39.008Z,99817.80
2022-12-28T19:24:40.791Z,99819.20
2022-12-28T19:29:42.456Z,99812.00
2022-12-28T19:34:43.990Z,99822.20
2022-12-28T19:39:45.679Z,99826.00
2022-12-28T19:44:47.218Z,99828.20
2022-12-28T19:49:48.879Z,99822.00
2022-12-28T19:54:50.501Z,99827.80
2022-12-28T19:59:52.402Z,99828.40
2022-12-28T20:04:54.100Z,99825.80
2022-12-28T20:09:55.692Z,99824.60
2022-12-28T20:14:57.260Z,99826.80
2022-12-28T20:19:58.813Z,99827.00
2022-12-28T20:25:00.632Z,99825.00
2022-12-28T20:30:02.489Z,99815.40
2022-12-28T20:35:04.681Z,99817.20
2022-12-28T20:40:07.253Z,99813.40
2022-12-28T20:45:09.065Z,99818.20
2022-12-28T20:50:20.410Z,99812.20
2022-12-28T20:55:24.243Z,99815.40
2022-12-28T21:00:33.316Z,99815.00
2022-12-28T21:05:40.158Z,99810.00
2022-12-28T21:11:33.561Z,99824.80
2022-12-28T21:16:37.859Z,99827.60
2022-12-28T21:21:53.837Z,99822.40
2022-12-28T21:27:01.950Z,99829.20
2022-12-28T21:32:05.464Z,99830.40
2022-12-28T21:37:28.793Z,99824.20
2022-12-28T21:42:32.095Z,99818.60
2022-12-28T21:47:38.791Z,99813.20
2022-12-28T21:52:41.909Z,99803.60
2022-12-28T21:57:54.509Z,99800.00
2022-12-28T22:03:16.388Z,99808.40
2022-12-28T22:08:41.470Z,99804.20
2022-12-28T22:13:45.780Z,99806.00
2022-12-28T22:19:04.401Z,99801.20
2022-12-28T22:24:07.623Z,99807.80
2022-12-28T22:29:10.622Z,99812.20
2022-12-28T22:34:13.530Z,99806.00
2022-12-28T22:39:16.439Z,99788.00
2022-12-28T22:44:19.415Z,99784.00
2022-12-28T22:49:22.305Z,99787.20
2022-12-28T22:54:25.396Z,99777.40
2022-12-28T22:59:28.348Z,99774.60
2022-12-28T23:04:31.556Z,99771.80
2022-12-28T23:09:35.063Z,99766.80
2022-12-28T23:14:56.761Z,99764.60
2022-12-28T23:20:18.557Z,99757.20
2022-12-28T23:25:43.835Z,99751.20
2022-12-28T23:30:49.933Z,99751.00
2022-12-28T23:35:52.973Z,99749.80
2022-12-28T23:41:15.808Z,99749.20
2022-12-28T23:46:18.840Z,99746.20
2022-12-28T23:51:21.816Z,99730.80
2022-12-28T23:56:25.937Z,99724.60
